sensor_id;sensor_type;location;lat;lon;timestamp;temperature;humidity
18317;DHT22;9284;52.298;21.164;2023-08-08T00:00:35;15.50;49.80
18317;DHT22;9284;52.298;21.164;2023-08-08T00:03:04;15.50;35.70
18317;DHT22;9284;52.298;21.164;2023-08-08T00:05:32;15.50;1.00
18317;DHT22;9284;52.298;21.164;2023-08-08T00:08:01;15.50;1.00
18317;DHT22;9284;52.298;21.164;2023-08-08T00:10:30;15.50;1.00
18317;DHT22;9284;52.298;21.164;2023-08-08T00:12:59;15.40;1.00
18317;DHT22;9284;52.298;21.164;2023-08-08T00:15:27;15.40;1.00
18317;DHT22;9284;52.298;21.164;2023-08-08T00:17:55;15.40;1.00
18317;DHT22;9284;52.298;21.164;2023-08-08T00:20:24;15.30;1.00
18317;DHT22;9284;52.298;21.164;2023-08-08T00:22:52;15.30;1.00
18317;DHT22;9284;52.298;21.164;2023-08-08T00:25:21;15.40;1.00
18317;DHT22;9284;52.298;21.164;2023-08-08T00:27:50;15.30;1.00
18317;DHT22;9284;52.298;21.164;2023-08-08T00:30:19;15.20;1.00
18317;DHT22;9284;52.298;21.164;2023-08-08T00:32:47;15.20;99.90
18317;DHT22;9284;52.298;21.164;2023-08-08T00:35:16;15.20;99.90
18317;DHT22;9284;52.298;21.164;2023-08-08T00:37:45;15.20;99.90
18317;DHT22;9284;52.298;21.164;2023-08-08T00:40:13;15.20;99.90
18317;DHT22;9284;52.298;21.164;2023-08-08T00:42:41;15.20;99.90
18317;DHT22;9284;52.298;21.164;2023-08-08T00:45:11;15.20;1.00
18317;DHT22;9284;52.298;21.164;2023-08-08T00:47:39;15.20;1.00
18317;DHT22;9284;52.298;21.164;2023-08-08T00:50:09;15.20;1.00
18317;DHT22;9284;52.298;21.164;2023-08-08T00:52:40;15.20;1.00
18317;DHT22;9284;52.298;21.164;2023-08-08T00:55:09;15.20;1.00
18317;DHT22;9284;52.298;21.164;2023-08-08T00:57:38;15.20;1.00
18317;DHT22;9284;52.298;21.164;2023-08-08T01:00:07;15.20;1.00
18317;DHT22;9284;52.298;21.164;2023-08-08T01:02:38;15.20;1.00
18317;DHT22;9284;52.298;21.164;2023-08-08T01:05:07;15.20;99.90
18317;DHT22;9284;52.298;21.164;2023-08-08T01:07:39;15.20;99.90
18317;DHT22;9284;52.298;21.164;2023-08-08T01:10:12;15.20;99.90
18317;DHT22;9284;52.298;21.164;2023-08-08T01:12:45;15.20;99.90
18317;DHT22;9284;52.298;21.164;2023-08-08T01:15:14;15.20;99.90
18317;DHT22;9284;52.298;21.164;2023-08-08T01:17:46;15.10;99.90
18317;DHT22;9284;52.298;21.164;2023-08-08T01:20:15;15.10;99.90
18317;DHT22;9284;52.298;21.164;2023-08-08T01:22:50;15.00;99.90
18317;DHT22;9284;52.298;21.164;2023-08-08T01:25:25;14.90;99.90
18317;DHT22;9284;52.298;21.164;2023-08-08T01:27:53;14.90;99.90
18317;DHT22;9284;52.298;21.164;2023-08-08T01:30:22;14.80;99.90
18317;DHT22;9284;52.298;21.164;2023-08-08T01:32:51;14.70;99.90
18317;DHT22;9284;52.298;21.164;2023-08-08T01:35:19;14.70;99.90
18317;DHT22;9284;52.298;21.164;2023-08-08T01:37:50;14.70;99.90
18317;DHT22;9284;52.298;21.164;2023-08-08T01:40:20;14.60;1.00
18317;DHT22;9284;52.298;21.164;2023-08-08T01:42:51;14.60;1.00
18317;DHT22;9284;52.298;21.164;2023-08-08T01:45:20;14.60;1.00
18317;DHT22;9284;52.298;21.164;2023-08-08T01:47:51;14.50;99.90
18317;DHT22;9284;52.298;21.164;2023-08-08T01:50:20;14.60;1.00
18317;DHT22;9284;52.298;21.164;2023-08-08T01:52:49;14.50;1.00
18317;DHT22;9284;52.298;21.164;2023-08-08T01:55:20;14.40;1.00
18317;DHT22;9284;52.298;21.164;2023-08-08T01:57:50;14.40;1.00
18317;DHT22;9284;52.298;21.164;2023-08-08T02:00:18;14.40;1.00
18317;DHT22;9284;52.298;21.164;2023-08-08T02:02:47;14.40;1.00
18317;DHT22;9284;52.298;21.164;2023-08-08T02:05:16;14.30;1.00
18317;DHT22;9284;52.298;21.164;2023-08-08T02:07:44;14.30;1.00
18317;DHT22;9284;52.298;21.164;2023-08-08T02:10:12;14.30;1.00
18317;DHT22;9284;52.298;21.164;2023-08-08T02:12:40;14.30;1.00
18317;DHT22;9284;52.298;21.164;2023-08-08T02:15:11;14.30;1.00
18317;DHT22;9284;52.298;21.164;2023-08-08T02:17:39;14.30;1.00
18317;DHT22;9284;52.298;21.164;2023-08-08T02:20:08;14.20;1.00
18317;DHT22;9284;52.298;21.164;2023-08-08T02:22:39;14.20;1.00
18317;DHT22;9284;52.298;21.164;2023-08-08T02:25:07;14.20;1.00
18317;DHT22;9284;52.298;21.164;2023-08-08T02:27:36;14.20;1.00
18317;DHT22;9284;52.298;21.164;2023-08-08T02:30:12;14.20;1.00
18317;DHT22;9284;52.298;21.164;2023-08-08T02:32:40;14.10;1.00
18317;DHT22;9284;52.298;21.164;2023-08-08T02:35:09;14.10;1.00
18317;DHT22;9284;52.298;21.164;2023-08-08T02:37:38;14.10;1.00
18317;DHT22;9284;52.298;21.164;2023-08-08T02:40:08;14.10;1.00
18317;DHT22;9284;52.298;21.164;2023-08-08T02:42:37;14.00;1.00
18317;DHT22;9284;52.298;21.164;2023-08-08T02:45:07;14.00;1.00
18317;DHT22;9284;52.298;21.164;2023-08-08T02:47:37;14.00;1.00
18317;DHT22;9284;52.298;21.164;2023-08-08T02:50:06;14.00;99.90
18317;DHT22;9284;52.298;21.164;2023-08-08T02:52:35;14.00;1.00
18317;DHT22;9284;52.298;21.164;2023-08-08T02:55:04;13.90;99.90
18317;DHT22;9284;52.298;21.164;2023-08-08T02:57:33;14.00;99.90
18317;DHT22;9284;52.298;21.164;2023-08-08T03:00:01;13.90;99.90
18317;DHT22;9284;52.298;21.164;2023-08-08T03:02:37;13.90;99.90
18317;DHT22;9284;52.298;21.164;2023-08-08T03:05:08;13.90;99.90
18317;DHT22;9284;52.298;21.164;2023-08-08T03:07:36;13.90;99.90
18317;DHT22;9284;52.298;21.164;2023-08-08T03:10:05;13.80;99.90
18317;DHT22;9284;52.298;21.164;2023-08-08T03:12:34;13.80;99.90
18317;DHT22;9284;52.298;21.164;2023-08-08T03:15:02;13.80;99.90
18317;DHT22;9284;52.298;21.164;2023-08-08T03:17:32;13.70;99.90
18317;DHT22;9284;52.298;21.164;2023-08-08T03:20:03;13.70;99.90
18317;DHT22;9284;52.298;21.164;2023-08-08T03:22:33;13.60;99.90
18317;DHT22;9284;52.298;21.164;2023-08-08T03:25:03;13.60;99.90
18317;DHT22;9284;52.298;21.164;2023-08-08T03:27:32;13.60;99.90
18317;DHT22;9284;52.298;21.164;2023-08-08T03:30:00;13.60;99.90
18317;DHT22;9284;52.298;21.164;2023-08-08T03:32:34;13.60;99.90
18317;DHT22;9284;52.298;21.164;2023-08-08T03:35:05;13.60;99.90
18317;DHT22;9284;52.298;21.164;2023-08-08T03:37:34;13.60;99.90
18317;DHT22;9284;52.298;21.164;2023-08-08T03:40:03;13.60;99.90
18317;DHT22;9284;52.298;21.164;2023-08-08T03:42:32;13.60;99.90
18317;DHT22;9284;52.298;21.164;2023-08-08T03:45:00;13.60;99.90
18317;DHT22;9284;52.298;21.164;2023-08-08T03:47:29;13.50;99.90
18317;DHT22;9284;52.298;21.164;2023-08-08T03:49:57;13.50;99.90
18317;DHT22;9284;52.298;21.164;2023-08-08T03:52:28;13.50;99.90
18317;DHT22;9284;52.298;21.164;2023-08-08T03:54:57;13.50;99.90
18317;DHT22;9284;52.298;21.164;2023-08-08T03:57:25;13.50;99.90
18317;DHT22;9284;52.298;21.164;2023-08-08T03:59:53;13.50;99.90
18317;DHT22;9284;52.298;21.164;2023-08-08T04:02:22;13.50;99.90
18317;DHT22;9284;52.298;21.164;2023-08-08T04:04:51;13.40;99.90
18317;DHT22;9284;52.298;21.164;2023-08-08T04:07:19;13.40;1.00
18317;DHT22;9284;52.298;21.164;2023-08-08T04:09:49;13.40;99.90
18317;DHT22;9284;52.298;21.164;2023-08-08T04:12:18;13.40;99.90
18317;DHT22;9284;52.298;21.164;2023-08-08T04:14:46;13.40;99.90
18317;DHT22;9284;52.298;21.164;2023-08-08T04:17:14;13.50;1.00
18317;DHT22;9284;52.298;21.164;2023-08-08T04:19:43;13.50;99.90
18317;DHT22;9284;52.298;21.164;2023-08-08T04:22:11;13.50;99.90
18317;DHT22;9284;52.298;21.164;2023-08-08T04:24:39;13.60;99.90
18317;DHT22;9284;52.298;21.164;2023-08-08T04:27:09;13.60;99.90
18317;DHT22;9284;52.298;21.164;2023-08-08T04:29:38;13.60;99.90
18317;DHT22;9284;52.298;21.164;2023-08-08T04:32:06;13.60;99.90
18317;DHT22;9284;52.298;21.164;2023-08-08T04:34:34;13.70;99.90
18317;DHT22;9284;52.298;21.164;2023-08-08T04:37:03;13.80;99.90
18317;DHT22;9284;52.298;21.164;2023-08-08T04:39:32;13.90;99.90
18317;DHT22;9284;52.298;21.164;2023-08-08T04:42:00;14.00;93.00
18317;DHT22;9284;52.298;21.164;2023-08-08T04:44:30;14.00;1.00
18317;DHT22;9284;52.298;21.164;2023-08-08T04:46:59;14.10;1.00
18317;DHT22;9284;52.298;21.164;2023-08-08T04:49:27;14.10;54.30
18317;DHT22;9284;52.298;21.164;2023-08-08T04:51:56;14.10;1.00
18317;DHT22;9284;52.298;21.164;2023-08-08T04:54:24;14.20;1.00
18317;DHT22;9284;52.298;21.164;2023-08-08T04:56:53;14.30;1.00
18317;DHT22;9284;52.298;21.164;2023-08-08T04:59:21;14.30;1.00
18317;DHT22;9284;52.298;21.164;2023-08-08T05:01:50;14.30;1.00
18317;DHT22;9284;52.298;21.164;2023-08-08T05:04:19;14.20;1.00
18317;DHT22;9284;52.298;21.164;2023-08-08T05:06:47;14.20;1.00
18317;DHT22;9284;52.298;21.164;2023-08-08T05:09:16;14.30;1.00
18317;DHT22;9284;52.298;21.164;2023-08-08T05:11:44;14.30;1.00
18317;DHT22;9284;52.298;21.164;2023-08-08T05:14:12;14.40;1.00
18317;DHT22;9284;52.298;21.164;2023-08-08T05:16:41;14.60;1.00
18317;DHT22;9284;52.298;21.164;2023-08-08T05:19:10;14.80;1.00
18317;DHT22;9284;52.298;21.164;2023-08-08T05:21:39;14.90;99.90
18317;DHT22;9284;52.298;21.164;2023-08-08T05:24:07;15.10;99.90
18317;DHT22;9284;52.298;21.164;2023-08-08T05:26:35;15.00;99.90
18317;DHT22;9284;52.298;21.164;2023-08-08T05:29:04;14.90;99.90
18317;DHT22;9284;52.298;21.164;2023-08-08T05:31:32;15.00;99.90
18317;DHT22;9284;52.298;21.164;2023-08-08T05:34:00;15.00;99.90
18317;DHT22;9284;52.298;21.164;2023-08-08T05:36:30;15.10;99.90
18317;DHT22;9284;52.298;21.164;2023-08-08T05:38:58;15.20;99.90
18317;DHT22;9284;52.298;21.164;2023-08-08T05:41:27;15.20;99.90
18317;DHT22;9284;52.298;21.164;2023-08-08T05:43:55;15.30;99.90
18317;DHT22;9284;52.298;21.164;2023-08-08T05:46:23;15.40;99.90
18317;DHT22;9284;52.298;21.164;2023-08-08T05:48:52;15.40;99.90
18317;DHT22;9284;52.298;21.164;2023-08-08T05:51:20;15.60;99.90
18317;DHT22;9284;52.298;21.164;2023-08-08T05:53:50;15.60;99.90
18317;DHT22;9284;52.298;21.164;2023-08-08T05:56:18;15.80;99.90
18317;DHT22;9284;52.298;21.164;2023-08-08T05:58:46;15.70;99.90
18317;DHT22;9284;52.298;21.164;2023-08-08T06:01:15;15.90;99.90
18317;DHT22;9284;52.298;21.164;2023-08-08T06:03:43;16.00;99.90
18317;DHT22;9284;52.298;21.164;2023-08-08T06:06:11;16.00;99.90
18317;DHT22;9284;52.298;21.164;2023-08-08T06:08:40;15.90;99.90
18317;DHT22;9284;52.298;21.164;2023-08-08T06:11:10;15.90;99.90
18317;DHT22;9284;52.298;21.164;2023-08-08T06:13:38;15.80;99.90
18317;DHT22;9284;52.298;21.164;2023-08-08T06:16:08;15.80;99.90
18317;DHT22;9284;52.298;21.164;2023-08-08T06:18:36;15.90;99.90
18317;DHT22;9284;52.298;21.164;2023-08-08T06:21:05;15.90;99.90
18317;DHT22;9284;52.298;21.164;2023-08-08T06:23:33;15.90;99.90
18317;DHT22;9284;52.298;21.164;2023-08-08T06:26:02;15.80;99.90
18317;DHT22;9284;52.298;21.164;2023-08-08T06:28:32;15.90;99.90
18317;DHT22;9284;52.298;21.164;2023-08-08T06:31:01;16.10;99.90
18317;DHT22;9284;52.298;21.164;2023-08-08T06:33:29;16.10;99.90
18317;DHT22;9284;52.298;21.164;2023-08-08T06:35:58;16.20;99.90
18317;DHT22;9284;52.298;21.164;2023-08-08T06:38:26;16.30;99.90
18317;DHT22;9284;52.298;21.164;2023-08-08T06:40:55;16.40;99.90
18317;DHT22;9284;52.298;21.164;2023-08-08T06:43:24;16.40;99.90
18317;DHT22;9284;52.298;21.164;2023-08-08T06:45:54;16.50;99.90
18317;DHT22;9284;52.298;21.164;2023-08-08T06:48:22;16.70;99.90
18317;DHT22;9284;52.298;21.164;2023-08-08T06:50:50;16.70;99.90
18317;DHT22;9284;52.298;21.164;2023-08-08T06:53:19;17.10;99.90
18317;DHT22;9284;52.298;21.164;2023-08-08T06:55:47;17.10;99.90
18317;DHT22;9284;52.298;21.164;2023-08-08T06:58:15;17.10;99.90
18317;DHT22;9284;52.298;21.164;2023-08-08T07:00:44;17.50;99.90
18317;DHT22;9284;52.298;21.164;2023-08-08T07:03:14;17.90;99.90
18317;DHT22;9284;52.298;21.164;2023-08-08T07:05:42;17.90;99.90
18317;DHT22;9284;52.298;21.164;2023-08-08T07:08:10;18.70;99.90
18317;DHT22;9284;52.298;21.164;2023-08-08T07:10:40;19.30;99.90
18317;DHT22;9284;52.298;21.164;2023-08-08T07:13:08;19.50;84.30
18317;DHT22;9284;52.298;21.164;2023-08-08T07:15:37;19.10;76.60
18317;DHT22;9284;52.298;21.164;2023-08-08T07:18:06;19.00;75.90
18317;DHT22;9284;52.298;21.164;2023-08-08T07:20:35;19.30;66.70
18317;DHT22;9284;52.298;21.164;2023-08-08T07:23:04;19.20;58.00
18317;DHT22;9284;52.298;21.164;2023-08-08T07:25:32;18.90;59.80
18317;DHT22;9284;52.298;21.164;2023-08-08T07:28:01;18.70;57.20
18317;DHT22;9284;52.298;21.164;2023-08-08T07:30:29;18.80;61.00
18317;DHT22;9284;52.298;21.164;2023-08-08T07:32:57;19.00;62.50
18317;DHT22;9284;52.298;21.164;2023-08-08T07:35:26;19.20;59.60
18317;DHT22;9284;52.298;21.164;2023-08-08T07:37:56;19.30;51.60
18317;DHT22;9284;52.298;21.164;2023-08-08T07:40:24;19.00;46.10
18317;DHT22;9284;52.298;21.164;2023-08-08T07:42:52;19.50;47.40
18317;DHT22;9284;52.298;21.164;2023-08-08T07:45:21;19.60;42.80
18317;DHT22;9284;52.298;21.164;2023-08-08T07:47:49;19.50;39.00
18317;DHT22;9284;52.298;21.164;2023-08-08T07:50:17;19.60;38.90
18317;DHT22;9284;52.298;21.164;2023-08-08T07:52:46;19.40;34.40
18317;DHT22;9284;52.298;21.164;2023-08-08T07:55:16;19.00;29.20
18317;DHT22;9284;52.298;21.164;2023-08-08T07:57:44;18.90;34.60
18317;DHT22;9284;52.298;21.164;2023-08-08T08:00:13;18.30;29.30
18317;DHT22;9284;52.298;21.164;2023-08-08T08:02:46;18.20;34.70
18317;DHT22;9284;52.298;21.164;2023-08-08T08:05:14;18.20;33.40
18317;DHT22;9284;52.298;21.164;2023-08-08T08:07:43;18.40;29.40
18317;DHT22;9284;52.298;21.164;2023-08-08T08:10:12;18.50;31.20
18317;DHT22;9284;52.298;21.164;2023-08-08T08:12:42;18.60;29.90
18317;DHT22;9284;52.298;21.164;2023-08-08T08:15:10;18.60;30.20
18317;DHT22;9284;52.298;21.164;2023-08-08T08:17:39;18.50;27.00
18317;DHT22;9284;52.298;21.164;2023-08-08T08:20:09;18.50;27.10
18317;DHT22;9284;52.298;21.164;2023-08-08T08:22:39;18.60;29.70
18317;DHT22;9284;52.298;21.164;2023-08-08T08:25:07;19.50;29.10
18317;DHT22;9284;52.298;21.164;2023-08-08T08:27:36;20.30;38.40
18317;DHT22;9284;52.298;21.164;2023-08-08T08:30:07;21.00;12.60
18317;DHT22;9284;52.298;21.164;2023-08-08T08:32:37;21.20;10.00
18317;DHT22;9284;52.298;21.164;2023-08-08T08:35:07;21.20;3.40
18317;DHT22;9284;52.298;21.164;2023-08-08T08:37:35;21.10;1.20
18317;DHT22;9284;52.298;21.164;2023-08-08T08:40:04;21.00;1.00
18317;DHT22;9284;52.298;21.164;2023-08-08T08:42:34;21.20;1.00
18317;DHT22;9284;52.298;21.164;2023-08-08T08:45:04;21.10;1.00
18317;DHT22;9284;52.298;21.164;2023-08-08T08:47:35;20.70;1.00
18317;DHT22;9284;52.298;21.164;2023-08-08T08:50:05;20.80;1.00
18317;DHT22;9284;52.298;21.164;2023-08-08T08:52:34;20.40;1.00
18317;DHT22;9284;52.298;21.164;2023-08-08T08:55:04;20.30;1.00
18317;DHT22;9284;52.298;21.164;2023-08-08T08:57:33;20.10;1.00
18317;DHT22;9284;52.298;21.164;2023-08-08T09:00:02;20.40;1.00
18317;DHT22;9284;52.298;21.164;2023-08-08T09:02:34;20.40;1.00
18317;DHT22;9284;52.298;21.164;2023-08-08T09:05:03;20.60;1.00
18317;DHT22;9284;52.298;21.164;2023-08-08T09:07:33;20.90;1.00
18317;DHT22;9284;52.298;21.164;2023-08-08T09:10:04;20.80;1.00
18317;DHT22;9284;52.298;21.164;2023-08-08T09:12:33;20.80;1.00
18317;DHT22;9284;52.298;21.164;2023-08-08T09:15:04;20.90;1.00
18317;DHT22;9284;52.298;21.164;2023-08-08T09:17:35;20.60;1.00
18317;DHT22;9284;52.298;21.164;2023-08-08T09:20:14;20.30;1.00
18317;DHT22;9284;52.298;21.164;2023-08-08T09:22:43;20.50;1.00
18317;DHT22;9284;52.298;21.164;2023-08-08T09:25:12;20.10;1.00
18317;DHT22;9284;52.298;21.164;2023-08-08T09:27:41;19.70;1.00
18317;DHT22;9284;52.298;21.164;2023-08-08T09:30:10;19.70;1.00
18317;DHT22;9284;52.298;21.164;2023-08-08T09:32:43;20.00;1.00
18317;DHT22;9284;52.298;21.164;2023-08-08T09:35:12;19.60;1.00
18317;DHT22;9284;52.298;21.164;2023-08-08T09:37:40;19.30;1.00
18317;DHT22;9284;52.298;21.164;2023-08-08T09:40:09;19.20;1.00
18317;DHT22;9284;52.298;21.164;2023-08-08T09:42:40;19.60;1.00
18317;DHT22;9284;52.298;21.164;2023-08-08T09:45:09;19.70;1.00
18317;DHT22;9284;52.298;21.164;2023-08-08T09:47:40;20.20;1.00
18317;DHT22;9284;52.298;21.164;2023-08-08T09:50:09;20.20;1.00
18317;DHT22;9284;52.298;21.164;2023-08-08T09:52:37;20.10;1.00
18317;DHT22;9284;52.298;21.164;2023-08-08T09:55:07;20.20;1.00
18317;DHT22;9284;52.298;21.164;2023-08-08T09:57:37;20.00;1.00
18317;DHT22;9284;52.298;21.164;2023-08-08T10:00:08;19.60;1.00
18317;DHT22;9284;52.298;21.164;2023-08-08T10:02:45;19.50;1.00
18317;DHT22;9284;52.298;21.164;2023-08-08T10:05:14;19.30;1.00
18317;DHT22;9284;52.298;21.164;2023-08-08T10:07:44;19.20;1.00
18317;DHT22;9284;52.298;21.164;2023-08-08T10:10:12;19.30;1.00
18317;DHT22;9284;52.298;21.164;2023-08-08T10:12:41;19.40;1.00
18317;DHT22;9284;52.298;21.164;2023-08-08T10:15:10;19.30;1.00
18317;DHT22;9284;52.298;21.164;2023-08-08T10:17:40;19.20;1.00
18317;DHT22;9284;52.298;21.164;2023-08-08T10:20:11;19.00;1.00
18317;DHT22;9284;52.298;21.164;2023-08-08T10:22:42;19.10;1.00
18317;DHT22;9284;52.298;21.164;2023-08-08T10:25:18;19.00;1.00
18317;DHT22;9284;52.298;21.164;2023-08-08T10:27:47;18.90;1.00
18317;DHT22;9284;52.298;21.164;2023-08-08T10:30:16;19.40;1.00
18317;DHT22;9284;52.298;21.164;2023-08-08T10:32:45;19.90;1.00
18317;DHT22;9284;52.298;21.164;2023-08-08T10:35:16;20.40;1.00
18317;DHT22;9284;52.298;21.164;2023-08-08T10:37:52;21.10;1.00
18317;DHT22;9284;52.298;21.164;2023-08-08T10:40:21;20.80;1.00
18317;DHT22;9284;52.298;21.164;2023-08-08T10:42:52;21.10;1.00
18317;DHT22;9284;52.298;21.164;2023-08-08T10:45:21;20.60;1.00
18317;DHT22;9284;52.298;21.164;2023-08-08T10:48:07;20.50;1.00
18317;DHT22;9284;52.298;21.164;2023-08-08T10:50:40;20.50;1.00
18317;DHT22;9284;52.298;21.164;2023-08-08T10:53:09;20.40;1.00
18317;DHT22;9284;52.298;21.164;2023-08-08T10:55:38;20.10;1.00
18317;DHT22;9284;52.298;21.164;2023-08-08T10:58:08;20.30;1.00
18317;DHT22;9284;52.298;21.164;2023-08-08T11:00:37;21.00;1.00
18317;DHT22;9284;52.298;21.164;2023-08-08T11:03:08;21.20;1.00
18317;DHT22;9284;52.298;21.164;2023-08-08T11:05:38;21.60;1.00
18317;DHT22;9284;52.298;21.164;2023-08-08T11:08:07;21.30;1.00
18317;DHT22;9284;52.298;21.164;2023-08-08T11:10:36;21.40;1.00
18317;DHT22;9284;52.298;21.164;2023-08-08T11:13:05;21.30;1.00
18317;DHT22;9284;52.298;21.164;2023-08-08T11:15:35;21.40;1.00
18317;DHT22;9284;52.298;21.164;2023-08-08T11:18:05;22.10;1.00
18317;DHT22;9284;52.298;21.164;2023-08-08T11:20:36;22.20;1.00
18317;DHT22;9284;52.298;21.164;2023-08-08T11:23:07;21.70;1.00
18317;DHT22;9284;52.298;21.164;2023-08-08T11:25:39;21.10;1.00
18317;DHT22;9284;52.298;21.164;2023-08-08T11:28:09;21.00;1.00
18317;DHT22;9284;52.298;21.164;2023-08-08T11:30:39;20.90;1.00
18317;DHT22;9284;52.298;21.164;2023-08-08T11:33:07;21.10;1.00
18317;DHT22;9284;52.298;21.164;2023-08-08T11:35:43;20.90;1.00
18317;DHT22;9284;52.298;21.164;2023-08-08T11:38:14;20.80;1.00
18317;DHT22;9284;52.298;21.164;2023-08-08T11:40:43;20.80;1.00
18317;DHT22;9284;52.298;21.164;2023-08-08T11:43:12;20.90;1.00
18317;DHT22;9284;52.298;21.164;2023-08-08T11:45:42;21.00;1.00
18317;DHT22;9284;52.298;21.164;2023-08-08T11:48:11;21.10;1.00
18317;DHT22;9284;52.298;21.164;2023-08-08T11:50:40;21.00;1.00
18317;DHT22;9284;52.298;21.164;2023-08-08T11:53:10;20.90;1.00
18317;DHT22;9284;52.298;21.164;2023-08-08T11:55:41;20.50;1.00
18317;DHT22;9284;52.298;21.164;2023-08-08T11:58:13;20.30;1.00
18317;DHT22;9284;52.298;21.164;2023-08-08T12:00:43;20.10;1.00
18317;DHT22;9284;52.298;21.164;2023-08-08T12:03:13;20.20;1.00
18317;DHT22;9284;52.298;21.164;2023-08-08T12:05:46;20.30;1.00
18317;DHT22;9284;52.298;21.164;2023-08-08T12:08:17;20.20;1.00
18317;DHT22;9284;52.298;21.164;2023-08-08T12:10:51;20.40;1.00
18317;DHT22;9284;52.298;21.164;2023-08-08T12:13:21;20.50;1.00
18317;DHT22;9284;52.298;21.164;2023-08-08T12:15:50;21.00;1.00
18317;DHT22;9284;52.298;21.164;2023-08-08T12:18:20;21.10;1.00
18317;DHT22;9284;52.298;21.164;2023-08-08T12:20:48;21.20;1.00
18317;DHT22;9284;52.298;21.164;2023-08-08T12:23:16;21.20;1.00
18317;DHT22;9284;52.298;21.164;2023-08-08T12:25:46;20.80;1.00
18317;DHT22;9284;52.298;21.164;2023-08-08T12:28:15;20.70;1.00
18317;DHT22;9284;52.298;21.164;2023-08-08T12:30:44;20.60;1.00
18317;DHT22;9284;52.298;21.164;2023-08-08T12:33:13;20.60;1.00
18317;DHT22;9284;52.298;21.164;2023-08-08T12:35:41;20.70;1.00
18317;DHT22;9284;52.298;21.164;2023-08-08T12:38:09;20.60;1.00
18317;DHT22;9284;52.298;21.164;2023-08-08T12:40:38;20.50;1.00
18317;DHT22;9284;52.298;21.164;2023-08-08T12:43:09;20.50;1.00
18317;DHT22;9284;52.298;21.164;2023-08-08T12:45:41;20.20;1.00
18317;DHT22;9284;52.298;21.164;2023-08-08T12:48:10;20.20;1.00
18317;DHT22;9284;52.298;21.164;2023-08-08T12:50:38;20.00;1.00
18317;DHT22;9284;52.298;21.164;2023-08-08T12:53:07;20.00;1.00
18317;DHT22;9284;52.298;21.164;2023-08-08T12:55:36;20.00;1.00
18317;DHT22;9284;52.298;21.164;2023-08-08T12:58:06;19.90;1.00
18317;DHT22;9284;52.298;21.164;2023-08-08T13:00:35;20.30;1.00
18317;DHT22;9284;52.298;21.164;2023-08-08T13:03:05;20.90;1.00
18317;DHT22;9284;52.298;21.164;2023-08-08T13:05:34;21.30;1.00
18317;DHT22;9284;52.298;21.164;2023-08-08T13:08:03;21.30;1.00
18317;DHT22;9284;52.298;21.164;2023-08-08T13:10:31;21.20;1.00
18317;DHT22;9284;52.298;21.164;2023-08-08T13:13:00;21.00;1.00
18317;DHT22;9284;52.298;21.164;2023-08-08T13:15:28;20.90;1.00
18317;DHT22;9284;52.298;21.164;2023-08-08T13:17:57;21.00;1.00
18317;DHT22;9284;52.298;21.164;2023-08-08T13:20:27;21.00;1.00
18317;DHT22;9284;52.298;21.164;2023-08-08T13:22:55;21.00;1.00
18317;DHT22;9284;52.298;21.164;2023-08-08T13:25:24;20.80;1.00
18317;DHT22;9284;52.298;21.164;2023-08-08T13:27:52;20.90;1.00
18317;DHT22;9284;52.298;21.164;2023-08-08T13:30:20;21.10;1.00
18317;DHT22;9284;52.298;21.164;2023-08-08T13:32:49;21.40;1.00
18317;DHT22;9284;52.298;21.164;2023-08-08T13:35:18;21.20;1.00
18317;DHT22;9284;52.298;21.164;2023-08-08T13:37:47;21.10;1.00
18317;DHT22;9284;52.298;21.164;2023-08-08T13:40:18;21.10;1.00
18317;DHT22;9284;52.298;21.164;2023-08-08T13:42:46;21.10;1.00
18317;DHT22;9284;52.298;21.164;2023-08-08T13:45:18;21.00;1.00
18317;DHT22;9284;52.298;21.164;2023-08-08T13:47:47;21.10;1.00
18317;DHT22;9284;52.298;21.164;2023-08-08T13:50:16;20.90;1.00
18317;DHT22;9284;52.298;21.164;2023-08-08T13:52:44;21.00;1.00
18317;DHT22;9284;52.298;21.164;2023-08-08T13:55:14;21.00;1.00
18317;DHT22;9284;52.298;21.164;2023-08-08T13:57:43;20.90;1.00
18317;DHT22;9284;52.298;21.164;2023-08-08T14:00:12;20.70;1.00
18317;DHT22;9284;52.298;21.164;2023-08-08T14:02:41;20.60;1.00
18317;DHT22;9284;52.298;21.164;2023-08-08T14:05:10;20.50;1.00
18317;DHT22;9284;52.298;21.164;2023-08-08T14:07:38;20.30;1.00
18317;DHT22;9284;52.298;21.164;2023-08-08T14:10:08;19.80;1.00
18317;DHT22;9284;52.298;21.164;2023-08-08T14:12:38;19.80;1.00
18317;DHT22;9284;52.298;21.164;2023-08-08T14:15:07;19.60;1.00
18317;DHT22;9284;52.298;21.164;2023-08-08T14:17:36;19.60;1.00
18317;DHT22;9284;52.298;21.164;2023-08-08T14:20:05;19.90;1.00
18317;DHT22;9284;52.298;21.164;2023-08-08T14:22:34;20.10;1.00
18317;DHT22;9284;52.298;21.164;2023-08-08T14:25:03;20.20;1.00
18317;DHT22;9284;52.298;21.164;2023-08-08T14:27:33;20.00;1.00
18317;DHT22;9284;52.298;21.164;2023-08-08T14:30:04;19.90;1.00
18317;DHT22;9284;52.298;21.164;2023-08-08T14:32:32;19.90;1.00
18317;DHT22;9284;52.298;21.164;2023-08-08T14:35:01;20.00;1.00
18317;DHT22;9284;52.298;21.164;2023-08-08T14:37:31;20.00;1.00
18317;DHT22;9284;52.298;21.164;2023-08-08T14:40:00;19.80;1.00
18317;DHT22;9284;52.298;21.164;2023-08-08T14:42:29;19.80;1.00
18317;DHT22;9284;52.298;21.164;2023-08-08T14:44:58;19.70;1.00
18317;DHT22;9284;52.298;21.164;2023-08-08T14:47:28;19.60;1.00
18317;DHT22;9284;52.298;21.164;2023-08-08T14:49:56;19.60;1.00
18317;DHT22;9284;52.298;21.164;2023-08-08T14:52:25;19.80;1.00
18317;DHT22;9284;52.298;21.164;2023-08-08T14:54:53;19.80;1.00
18317;DHT22;9284;52.298;21.164;2023-08-08T14:57:21;19.90;1.00
18317;DHT22;9284;52.298;21.164;2023-08-08T14:59:50;19.80;1.00
18317;DHT22;9284;52.298;21.164;2023-08-08T15:02:19;20.00;1.00
18317;DHT22;9284;52.298;21.164;2023-08-08T15:04:48;20.20;1.00
18317;DHT22;9284;52.298;21.164;2023-08-08T15:07:19;20.30;1.00
18317;DHT22;9284;52.298;21.164;2023-08-08T15:09:47;20.10;1.00
18317;DHT22;9284;52.298;21.164;2023-08-08T15:12:17;19.90;1.00
18317;DHT22;9284;52.298;21.164;2023-08-08T15:14:45;19.80;1.00
18317;DHT22;9284;52.298;21.164;2023-08-08T15:17:15;19.90;1.00
18317;DHT22;9284;52.298;21.164;2023-08-08T15:19:44;19.90;1.00
18317;DHT22;9284;52.298;21.164;2023-08-08T15:22:14;19.90;1.00
18317;DHT22;9284;52.298;21.164;2023-08-08T15:24:42;19.70;1.00
18317;DHT22;9284;52.298;21.164;2023-08-08T15:27:10;19.60;1.00
18317;DHT22;9284;52.298;21.164;2023-08-08T15:29:39;19.50;1.00
18317;DHT22;9284;52.298;21.164;2023-08-08T15:32:07;19.40;1.00
18317;DHT22;9284;52.298;21.164;2023-08-08T15:34:35;19.40;1.00
18317;DHT22;9284;52.298;21.164;2023-08-08T15:37:04;19.30;1.00
18317;DHT22;9284;52.298;21.164;2023-08-08T15:39:34;19.30;1.00
18317;DHT22;9284;52.298;21.164;2023-08-08T15:42:02;19.30;1.00
18317;DHT22;9284;52.298;21.164;2023-08-08T15:44:31;19.30;1.00
18317;DHT22;9284;52.298;21.164;2023-08-08T15:46:59;19.30;1.00
18317;DHT22;9284;52.298;21.164;2023-08-08T15:49:28;19.40;1.00
18317;DHT22;9284;52.298;21.164;2023-08-08T15:51:57;19.50;1.00